Barcelona Express — VRLX6 — position and weather

sailwx.info

Track history (hours):
 
Tides and Currents Weather Stations Pressure Air Temp Water Temp Dewpoint Dewpoint Depression Visibility Wind Speed Wind Dir Waves Ship Positions

Barcelona Express

Last reported at 2018-Feb-09 19:00 UTC. Time now 2018-Feb-17 23:46 UTC.
Position N 39°20' W 009°51'.
Warning: this ship's position is 8 days out of date.

Length 228 m; draft 10.5 m.

Type: Ship (hazmat cat D). MMSI: 477694300.

Date/timePositionNaut miles runAvg speedWind from/ knotsBaromVisibWave heightAir tempDewpointWater temp
2018-Feb-09 19:00N 39°20' W 009°51'1918.6
2018-Feb-09 18:01N 39°01' W 009°52'2818.4
2018-Feb-09 16:30N 38°34' W 009°49'918.5
2018-Feb-09 16:00N 38°25' W 009°47'918.3
2018-Feb-09 15:30N 38°16' W 009°44'918.0
2018-Feb-09 15:00N 38°07' W 009°41'918.2
2018-Feb-09 14:31N 37°58' W 009°38'234 6.7
2018-Feb-08 03:30N 35°60' W 005°25'4 8.4
2018-Feb-08 03:00N 36°01' W 005°20'5 9.2
2018-Feb-08 02:30N 36°01' W 005°15'9 8.9
2018-Feb-08 01:30N 35°52' W 005°11'0 0.8
2018-Feb-08 01:00N 35°52' W 005°11'1 1.6
2018-Feb-08 00:29N 35°52' W 005°10'0 0.5
2018-Feb-08 00:00N 35°51' W 005°10'0 0.9
2018-Feb-07 23:29N 35°51' W 005°09'0 0.5
2018-Feb-07 23:00N 35°51' W 005°09'0 0.5
2018-Feb-07 22:12N 35°51' W 005°09'0 0.6
2018-Feb-07 22:00N 35°51' W 005°08'0 0.6
2018-Feb-07 21:30N 35°51' W 005°08'11 0.7
2018-Feb-07 06:10N 35°53' W 004°55'0 1.1
2018-Feb-07 05:47N 35°53' W 004°56'3 0.8
2018-Feb-07 02:16N 35°51' W 004°59'0 0.7
2018-Feb-07 01:58N 35°51' W 004°59'0 0.7
2018-Feb-07 01:17N 35°51' W 004°60'0 0.8
2018-Feb-07 01:01N 35°51' W 005°00'0 0.8
2018-Feb-07 00:28N 35°51' W 005°01'2 0.9
2018-Feb-06 22:26N 35°52' W 005°03'1 2.2
2018-Feb-06 22:00N 35°53' W 005°03'1 2.1
2018-Feb-06 21:28N 35°54' W 005°04'5 6.4
2018-Feb-06 20:37N 35°55' W 005°11'216.0
2018-Feb-06 20:30N 35°56' W 005°13'816.2
2018-Feb-06 20:01N 36°00' W 005°21'8 1.5
2018-Feb-06 14:14N 36°08' W 005°25'4 1.9
2018-Feb-06 11:52N 36°05' W 005°22'512.2
2018-Feb-06 11:30N 36°04' W 005°16'1 1.6
2018-Feb-06 10:56N 36°04' W 005°15'1 2.4
2018-Feb-06 10:27N 36°05' W 005°16'1 3.0
2018-Feb-06 10:00N 36°05' W 005°15'221 9.1
2018-Feb-05 09:32N 37°20' W 000°55'212.2
2018-Feb-05 09:21N 37°21' W 000°52'412.3
2018-Feb-05 09:00N 37°24' W 000°48'612.2
2018-Feb-05 08:31N 37°28' W 000°43'611.9
2018-Feb-05 08:00N 37°32' W 000°37'611.6
2018-Feb-05 07:30N 37°36' W 000°32'41012.0
2018-Feb-03 21:16N 43°02' E 004°54'311.8
2018-Feb-03 21:00N 43°05' E 004°56'612.0
2018-Feb-03 20:30N 43°10' E 005°00'713.5
2018-Feb-03 20:00N 43°17' E 004°59'10 6.6
2018-Feb-03 18:30N 43°24' E 004°51'0 0.0
2018-Feb-03 18:00N 43°24' E 004°51'0 0.0
2018-Feb-03 17:30N 43°24' E 004°51'0 0.0
2018-Feb-03 17:00N 43°24' E 004°51'0 0.0
2018-Feb-03 16:00N 43°24' E 004°51'0 0.0
2018-Feb-03 15:30N 43°24' E 004°51'0 0.0
2018-Feb-03 15:00N 43°24' E 004°51'0 0.0
2018-Feb-03 14:30N 43°24' E 004°51'0 0.0
2018-Feb-03 14:00N 43°24' E 004°51'0 0.0
2018-Feb-03 13:30N 43°24' E 004°51'0 0.0
2018-Feb-03 13:00N 43°24' E 004°51'0 0.0
2018-Feb-03 12:30N 43°24' E 004°51'0 0.0
2018-Feb-03 12:00N 43°24' E 004°51'0 0.0
2018-Feb-03 11:30N 43°24' E 004°51'0 0.0
2018-Feb-03 11:00N 43°24' E 004°51'0 0.0
2018-Feb-03 10:30N 43°24' E 004°51'0 0.0
2018-Feb-03 10:00N 43°24' E 004°51'0 0.0
2018-Feb-03 09:30N 43°24' E 004°51'0 0.0
2018-Feb-03 09:00N 43°24' E 004°51'0 0.0
2018-Feb-03 08:30N 43°24' E 004°51'0 0.0
2018-Feb-03 08:00N 43°24' E 004°51'0 0.0
2018-Feb-03 06:30N 43°24' E 004°51'0 0.0
2018-Feb-03 06:00N 43°24' E 004°51'0 0.0
2018-Feb-03 05:30N 43°24' E 004°51'0 0.0
2018-Feb-03 05:00N 43°24' E 004°51'0 0.0
2018-Feb-03 04:00N 43°24' E 004°51'0 0.0
2018-Feb-03 03:30N 43°24' E 004°51'0 0.0
2018-Feb-03 02:00N 43°24' E 004°51'0 0.0
2018-Feb-03 01:30N 43°24' E 004°51'0 0.0
2018-Feb-03 01:00N 43°24' E 004°51'0 0.0
2018-Feb-03 00:30N 43°24' E 004°51'0 0.0
2018-Feb-03 00:00N 43°24' E 004°51'0 0.0
2018-Feb-02 23:30N 43°24' E 004°51'0 0.1
2018-Feb-02 23:00N 43°24' E 004°51'0 0.0
2018-Feb-02 22:30N 43°24' E 004°51'0 0.0
2018-Feb-02 22:00N 43°24' E 004°51'0 0.0
2018-Feb-02 21:30N 43°24' E 004°51'0 0.0
2018-Feb-02 21:00N 43°24' E 004°51'0 0.0
2018-Feb-02 20:31N 43°24' E 004°51'2 3.0
2018-Feb-02 20:01N 43°24' E 004°53'8 8.2
2018-Feb-02 19:00N 43°17' E 005°00'611.8
2018-Feb-02 18:30N 43°12' E 005°02'511.3
2018-Feb-02 18:01N 43°07' E 004°59'3 6.9
2018-Feb-02 17:31N 43°05' E 004°55'1 1.8
2018-Feb-02 17:00N 43°06' E 004°54'3 6.5
2018-Feb-02 16:30N 43°03' E 004°54'2 2.0
2018-Feb-02 15:31N 43°05' E 004°54'1 1.4
2018-Feb-02 14:30N 43°03' E 004°54'2 3.1
2018-Feb-02 14:00N 43°02' E 004°53'1 2.0
2018-Feb-02 13:30N 43°03' E 004°53'1 2.1
2018-Feb-02 13:00N 43°04' E 004°53'1 2.2
2018-Feb-02 12:30N 43°05' E 004°53'1 2.2
2018-Feb-02 12:00N 43°06' E 004°53'1 1.9
2018-Feb-02 11:30N 43°06' E 004°55'2 4.0
2018-Feb-02 11:01N 43°04' E 004°55'1 1.8
2018-Feb-02 10:30N 43°03' E 004°55'1 2.3
2018-Feb-02 10:00N 43°05' E 004°55'1 2.3
2018-Feb-02 09:30N 43°06' E 004°55'1 2.4
2018-Feb-02 09:00N 43°07' E 004°55'2 3.5
2018-Feb-02 08:30N 43°06' E 004°57'2 4.2
2018-Feb-02 07:59N 43°04' E 004°59'3 4.3
2018-Feb-02 07:20N 43°03' E 005°02'1 4.2
2018-Feb-02 06:58N 43°02' E 005°04'3 4.9
2018-Feb-02 06:21N 43°02' E 005°08'8510.2
2018-Feb-01 22:01N 43°12' E 007°04'611.5
2018-Feb-01 21:30N 43°15' E 007°10'5610.8
2018-Feb-01 16:18N 43°48' E 008°13'410.4
2018-Feb-01 15:57N 43°50' E 008°17'810.1
2018-Feb-01 15:09N 43°56' E 008°25'1 9.6
2018-Feb-01 15:01N 43°57' E 008°26'1510.3
2018-Feb-01 13:31N 44°08' E 008°41'612.3
2018-Feb-01 13:01N 44°12' E 008°47'612.8
2018-Feb-01 12:31N 44°17' E 008°53'611.7
2018-Feb-01 12:01N 44°22' E 008°57'3 3.1
2018-Feb-01 10:56N 44°24' E 008°54'0 0.0
2018-Feb-01 10:26N 44°24' E 008°54'0 0.0
2018-Feb-01 09:59N 44°24' E 008°54'0 0.0
2018-Feb-01 09:23N 44°24' E 008°54'0 0.0
2018-Feb-01 08:59N 44°24' E 008°54'0 0.0
2018-Feb-01 08:29N 44°24' E 008°54'0 0.0
2018-Feb-01 07:29N 44°24' E 008°54'0 0.0
2018-Feb-01 06:59N 44°24' E 008°54'0 0.0
2018-Feb-01 06:29N 44°24' E 008°54'0 0.0
2018-Feb-01 05:59N 44°24' E 008°54'0 0.0
2018-Feb-01 05:29N 44°24' E 008°54'0 0.0
2018-Feb-01 04:59N 44°24' E 008°54'0 0.0
2018-Feb-01 04:29N 44°24' E 008°54'0 0.0
2018-Feb-01 03:59N 44°24' E 008°54'0 0.0
2018-Feb-01 02:59N 44°24' E 008°54'0 0.0
2018-Feb-01 02:29N 44°24' E 008°54'0 0.0
2018-Feb-01 01:59N 44°24' E 008°54'0 0.0
2018-Feb-01 01:29N 44°24' E 008°54'0 0.0
2018-Feb-01 00:59N 44°24' E 008°54'0 0.0
2018-Feb-01 00:29N 44°24' E 008°54'0 0.0
2018-Jan-31 23:59N 44°24' E 008°54'0 0.0
2018-Jan-31 22:56N 44°24' E 008°54'0 0.0
2018-Jan-31 22:26N 44°24' E 008°54'0 0.0
2018-Jan-31 20:59N 44°24' E 008°54'0 0.0
2018-Jan-31 20:26N 44°24' E 008°54'0 0.0
2018-Jan-31 19:59N 44°24' E 008°54'0 0.0
2018-Jan-31 19:29N 44°24' E 008°54'0 0.0
2018-Jan-31 18:56N 44°24' E 008°54'0 0.0
2018-Jan-31 18:29N 44°24' E 008°54'0 0.0
2018-Jan-31 17:59N 44°24' E 008°54'0 0.0
2018-Jan-31 17:26N 44°24' E 008°54'0 0.0
2018-Jan-31 17:00N 44°24' E 008°54'0 0.4
2018-Jan-31 16:30N 44°24' E 008°54'3 6.6
2018-Jan-31 16:00N 44°22' E 008°58'4 8.5
2018-Jan-31 15:30N 44°18' E 009°00'612.1
2018-Jan-31 15:00N 44°13' E 009°03'510.6
2018-Jan-31 14:30N 44°08' E 009°06'1812.2
2018-Jan-31 13:00N 43°51' E 009°17'713.8
2018-Jan-31 12:30N 43°45' E 009°21'713.9
2018-Jan-31 12:00N 43°39' E 009°24'714.1
2018-Jan-31 11:30N 43°32' E 009°26'714.8
2018-Jan-31 11:01N 43°24' E 009°27'713.4
2018-Jan-31 10:30N 43°26' E 009°36'714.1
2018-Jan-31 10:00N 43°28' E 009°46'816.0
2018-Jan-31 09:30N 43°31' E 009°56'815.4
2018-Jan-31 09:00N 43°30' E 010°07'611.6
2018-Jan-31 08:31N 43°32' E 010°14'3 6.0
2018-Jan-31 08:00N 43°33' E 010°18'1 2.5
2018-Jan-31 07:28N 43°35' E 010°18'0 0.0
2018-Jan-31 06:58N 43°35' E 010°18'0 0.0
2018-Jan-31 06:28N 43°35' E 010°18'0 0.0
2018-Jan-31 05:58N 43°35' E 010°18'0 0.0
2018-Jan-31 05:28N 43°35' E 010°18'0 0.0
2018-Jan-31 04:58N 43°35' E 010°18'0 0.0
2018-Jan-31 04:28N 43°35' E 010°18'0 0.0
2018-Jan-31 03:58N 43°35' E 010°18'0 0.0
2018-Jan-31 03:28N 43°35' E 010°18'0 0.0
2018-Jan-31 02:58N 43°35' E 010°18'0 0.0
2018-Jan-31 02:28N 43°35' E 010°18'0 0.0
2018-Jan-31 01:58N 43°35' E 010°18'0 0.0
2018-Jan-31 01:22N 43°35' E 010°18'0 0.0
2018-Jan-31 00:55N 43°35' E 010°18'0 0.0
2018-Jan-30 23:58N 43°35' E 010°18'0 0.0
2018-Jan-30 23:28N 43°35' E 010°18'0 0.0
2018-Jan-30 22:58N 43°35' E 010°18'0 0.0
2018-Jan-30 22:25N 43°35' E 010°18'0 0.0
2018-Jan-30 21:28N 43°35' E 010°18'0 0.0
2018-Jan-30 20:58N 43°35' E 010°18'0 0.0
2018-Jan-30 20:28N 43°35' E 010°18'0 0.0
2018-Jan-30 19:58N 43°35' E 010°18'0 0.0
2018-Jan-30 19:28N 43°35' E 010°18'  
Track history (hours):
 
Tides and Currents Weather Stations Pressure Air Temp Water Temp Dewpoint Dewpoint Depression Visibility Wind Speed Wind Dir Waves Ship Positions

Barcelona Express

Last reported at 2018-Feb-09 19:00 UTC. Time now 2018-Feb-17 23:46 UTC.
Position N 39°20' W 009°51'.
Warning: this ship's position is 8 days out of date.

Length 228 m; draft 10.5 m.

Type: Ship (hazmat cat D). MMSI: 477694300.

Date/timePositionNaut miles runAvg speedWind from/ knotsBaromVisibWave heightAir tempDewpointWater temp
2018-Feb-09 19:00N 39°20' W 009°51'1918.6
2018-Feb-09 18:01N 39°01' W 009°52'2818.4
2018-Feb-09 16:30N 38°34' W 009°49'918.5
2018-Feb-09 16:00N 38°25' W 009°47'918.3
2018-Feb-09 15:30N 38°16' W 009°44'918.0
2018-Feb-09 15:00N 38°07' W 009°41'918.2
2018-Feb-09 14:31N 37°58' W 009°38'234 6.7
2018-Feb-08 03:30N 35°60' W 005°25'4 8.4
2018-Feb-08 03:00N 36°01' W 005°20'5 9.2
2018-Feb-08 02:30N 36°01' W 005°15'9 8.9
2018-Feb-08 01:30N 35°52' W 005°11'0 0.8
2018-Feb-08 01:00N 35°52' W 005°11'1 1.6
2018-Feb-08 00:29N 35°52' W 005°10'0 0.5
2018-Feb-08 00:00N 35°51' W 005°10'0 0.9
2018-Feb-07 23:29N 35°51' W 005°09'0 0.5
2018-Feb-07 23:00N 35°51' W 005°09'0 0.5
2018-Feb-07 22:12N 35°51' W 005°09'0 0.6
2018-Feb-07 22:00N 35°51' W 005°08'0 0.6
2018-Feb-07 21:30N 35°51' W 005°08'11 0.7
2018-Feb-07 06:10N 35°53' W 004°55'0 1.1
2018-Feb-07 05:47N 35°53' W 004°56'3 0.8
2018-Feb-07 02:16N 35°51' W 004°59'0 0.7
2018-Feb-07 01:58N 35°51' W 004°59'0 0.7
2018-Feb-07 01:17N 35°51' W 004°60'0 0.8
2018-Feb-07 01:01N 35°51' W 005°00'0 0.8
2018-Feb-07 00:28N 35°51' W 005°01'2 0.9
2018-Feb-06 22:26N 35°52' W 005°03'1 2.2
2018-Feb-06 22:00N 35°53' W 005°03'1 2.1
2018-Feb-06 21:28N 35°54' W 005°04'5 6.4
2018-Feb-06 20:37N 35°55' W 005°11'216.0
2018-Feb-06 20:30N 35°56' W 005°13'816.2
2018-Feb-06 20:01N 36°00' W 005°21'8 1.5
2018-Feb-06 14:14N 36°08' W 005°25'4 1.9
2018-Feb-06 11:52N 36°05' W 005°22'512.2
2018-Feb-06 11:30N 36°04' W 005°16'1 1.6
2018-Feb-06 10:56N 36°04' W 005°15'1 2.4
2018-Feb-06 10:27N 36°05' W 005°16'1 3.0
2018-Feb-06 10:00N 36°05' W 005°15'221 9.1
2018-Feb-05 09:32N 37°20' W 000°55'212.2
2018-Feb-05 09:21N 37°21' W 000°52'412.3
2018-Feb-05 09:00N 37°24' W 000°48'612.2
2018-Feb-05 08:31N 37°28' W 000°43'611.9
2018-Feb-05 08:00N 37°32' W 000°37'611.6
2018-Feb-05 07:30N 37°36' W 000°32'41012.0
2018-Feb-03 21:16N 43°02' E 004°54'311.8
2018-Feb-03 21:00N 43°05' E 004°56'612.0
2018-Feb-03 20:30N 43°10' E 005°00'713.5
2018-Feb-03 20:00N 43°17' E 004°59'10 6.6
2018-Feb-03 18:30N 43°24' E 004°51'0 0.0
2018-Feb-03 18:00N 43°24' E 004°51'0 0.0
2018-Feb-03 17:30N 43°24' E 004°51'0 0.0
2018-Feb-03 17:00N 43°24' E 004°51'0 0.0
2018-Feb-03 16:00N 43°24' E 004°51'0 0.0
2018-Feb-03 15:30N 43°24' E 004°51'0 0.0
2018-Feb-03 15:00N 43°24' E 004°51'0 0.0
2018-Feb-03 14:30N 43°24' E 004°51'0 0.0
2018-Feb-03 14:00N 43°24' E 004°51'0 0.0
2018-Feb-03 13:30N 43°24' E 004°51'0 0.0
2018-Feb-03 13:00N 43°24' E 004°51'0 0.0
2018-Feb-03 12:30N 43°24' E 004°51'0 0.0
2018-Feb-03 12:00N 43°24' E 004°51'0 0.0
2018-Feb-03 11:30N 43°24' E 004°51'0 0.0
2018-Feb-03 11:00N 43°24' E 004°51'0 0.0
2018-Feb-03 10:30N 43°24' E 004°51'0 0.0
2018-Feb-03 10:00N 43°24' E 004°51'0 0.0
2018-Feb-03 09:30N 43°24' E 004°51'0 0.0
2018-Feb-03 09:00N 43°24' E 004°51'0 0.0
2018-Feb-03 08:30N 43°24' E 004°51'0 0.0
2018-Feb-03 08:00N 43°24' E 004°51'0 0.0
2018-Feb-03 06:30N 43°24' E 004°51'0 0.0
2018-Feb-03 06:00N 43°24' E 004°51'0 0.0
2018-Feb-03 05:30N 43°24' E 004°51'0 0.0
2018-Feb-03 05:00N 43°24' E 004°51'0 0.0
2018-Feb-03 04:00N 43°24' E 004°51'0 0.0
2018-Feb-03 03:30N 43°24' E 004°51'0 0.0
2018-Feb-03 02:00N 43°24' E 004°51'0 0.0
2018-Feb-03 01:30N 43°24' E 004°51'0 0.0
2018-Feb-03 01:00N 43°24' E 004°51'0 0.0
2018-Feb-03 00:30N 43°24' E 004°51'0 0.0
2018-Feb-03 00:00N 43°24' E 004°51'0 0.0
2018-Feb-02 23:30N 43°24' E 004°51'0 0.1
2018-Feb-02 23:00N 43°24' E 004°51'0 0.0
2018-Feb-02 22:30N 43°24' E 004°51'0 0.0
2018-Feb-02 22:00N 43°24' E 004°51'0 0.0
2018-Feb-02 21:30N 43°24' E 004°51'0 0.0
2018-Feb-02 21:00N 43°24' E 004°51'0 0.0
2018-Feb-02 20:31N 43°24' E 004°51'2 3.0
2018-Feb-02 20:01N 43°24' E 004°53'8 8.2
2018-Feb-02 19:00N 43°17' E 005°00'611.8
2018-Feb-02 18:30N 43°12' E 005°02'511.3
2018-Feb-02 18:01N 43°07' E 004°59'3 6.9
2018-Feb-02 17:31N 43°05' E 004°55'1 1.8
2018-Feb-02 17:00N 43°06' E 004°54'3 6.5
2018-Feb-02 16:30N 43°03' E 004°54'2 2.0
2018-Feb-02 15:31N 43°05' E 004°54'1 1.4
2018-Feb-02 14:30N 43°03' E 004°54'2 3.1
2018-Feb-02 14:00N 43°02' E 004°53'1 2.0
2018-Feb-02 13:30N 43°03' E 004°53'1 2.1
2018-Feb-02 13:00N 43°04' E 004°53'1 2.2
2018-Feb-02 12:30N 43°05' E 004°53'1 2.2
2018-Feb-02 12:00N 43°06' E 004°53'1 1.9
2018-Feb-02 11:30N 43°06' E 004°55'2 4.0
2018-Feb-02 11:01N 43°04' E 004°55'1 1.8
2018-Feb-02 10:30N 43°03' E 004°55'1 2.3
2018-Feb-02 10:00N 43°05' E 004°55'1 2.3
2018-Feb-02 09:30N 43°06' E 004°55'1 2.4
2018-Feb-02 09:00N 43°07' E 004°55'2 3.5
2018-Feb-02 08:30N 43°06' E 004°57'2 4.2
2018-Feb-02 07:59N 43°04' E 004°59'3 4.3
2018-Feb-02 07:20N 43°03' E 005°02'1 4.2
2018-Feb-02 06:58N 43°02' E 005°04'3 4.9
2018-Feb-02 06:21N 43°02' E 005°08'8510.2
2018-Feb-01 22:01N 43°12' E 007°04'611.5
2018-Feb-01 21:30N 43°15' E 007°10'5610.8
2018-Feb-01 16:18N 43°48' E 008°13'410.4
2018-Feb-01 15:57N 43°50' E 008°17'810.1
2018-Feb-01 15:09N 43°56' E 008°25'1 9.6
2018-Feb-01 15:01N 43°57' E 008°26'1510.3
2018-Feb-01 13:31N 44°08' E 008°41'612.3
2018-Feb-01 13:01N 44°12' E 008°47'612.8
2018-Feb-01 12:31N 44°17' E 008°53'611.7
2018-Feb-01 12:01N 44°22' E 008°57'3 3.1
2018-Feb-01 10:56N 44°24' E 008°54'0 0.0
2018-Feb-01 10:26N 44°24' E 008°54'0 0.0
2018-Feb-01 09:59N 44°24' E 008°54'0 0.0
2018-Feb-01 09:23N 44°24' E 008°54'0 0.0
2018-Feb-01 08:59N 44°24' E 008°54'0 0.0
2018-Feb-01 08:29N 44°24' E 008°54'0 0.0
2018-Feb-01 07:29N 44°24' E 008°54'0 0.0
2018-Feb-01 06:59N 44°24' E 008°54'0 0.0
2018-Feb-01 06:29N 44°24' E 008°54'0 0.0
2018-Feb-01 05:59N 44°24' E 008°54'0 0.0
2018-Feb-01 05:29N 44°24' E 008°54'0 0.0
2018-Feb-01 04:59N 44°24' E 008°54'0 0.0
2018-Feb-01 04:29N 44°24' E 008°54'0 0.0
2018-Feb-01 03:59N 44°24' E 008°54'0 0.0
2018-Feb-01 02:59N 44°24' E 008°54'0 0.0
2018-Feb-01 02:29N 44°24' E 008°54'0 0.0
2018-Feb-01 01:59N 44°24' E 008°54'0 0.0
2018-Feb-01 01:29N 44°24' E 008°54'0 0.0
2018-Feb-01 00:59N 44°24' E 008°54'0 0.0
2018-Feb-01 00:29N 44°24' E 008°54'0 0.0
2018-Jan-31 23:59N 44°24' E 008°54'0 0.0
2018-Jan-31 22:56N 44°24' E 008°54'0 0.0
2018-Jan-31 22:26N 44°24' E 008°54'0 0.0
2018-Jan-31 20:59N 44°24' E 008°54'0 0.0
2018-Jan-31 20:26N 44°24' E 008°54'0 0.0
2018-Jan-31 19:59N 44°24' E 008°54'0 0.0
2018-Jan-31 19:29N 44°24' E 008°54'0 0.0
2018-Jan-31 18:56N 44°24' E 008°54'0 0.0
2018-Jan-31 18:29N 44°24' E 008°54'0 0.0
2018-Jan-31 17:59N 44°24' E 008°54'0 0.0
2018-Jan-31 17:26N 44°24' E 008°54'0 0.0
2018-Jan-31 17:00N 44°24' E 008°54'0 0.4
2018-Jan-31 16:30N 44°24' E 008°54'3 6.6
2018-Jan-31 16:00N 44°22' E 008°58'4 8.5
2018-Jan-31 15:30N 44°18' E 009°00'612.1
2018-Jan-31 15:00N 44°13' E 009°03'510.6
2018-Jan-31 14:30N 44°08' E 009°06'1812.2
2018-Jan-31 13:00N 43°51' E 009°17'713.8
2018-Jan-31 12:30N 43°45' E 009°21'713.9
2018-Jan-31 12:00N 43°39' E 009°24'714.1
2018-Jan-31 11:30N 43°32' E 009°26'714.8
2018-Jan-31 11:01N 43°24' E 009°27'713.4
2018-Jan-31 10:30N 43°26' E 009°36'714.1
2018-Jan-31 10:00N 43°28' E 009°46'816.0
2018-Jan-31 09:30N 43°31' E 009°56'815.4
2018-Jan-31 09:00N 43°30' E 010°07'611.6
2018-Jan-31 08:31N 43°32' E 010°14'3 6.0
2018-Jan-31 08:00N 43°33' E 010°18'1 2.5
2018-Jan-31 07:28N 43°35' E 010°18'0 0.0
2018-Jan-31 06:58N 43°35' E 010°18'0 0.0
2018-Jan-31 06:28N 43°35' E 010°18'0 0.0
2018-Jan-31 05:58N 43°35' E 010°18'0 0.0
2018-Jan-31 05:28N 43°35' E 010°18'0 0.0
2018-Jan-31 04:58N 43°35' E 010°18'0 0.0
2018-Jan-31 04:28N 43°35' E 010°18'0 0.0
2018-Jan-31 03:58N 43°35' E 010°18'0 0.0
2018-Jan-31 03:28N 43°35' E 010°18'0 0.0
2018-Jan-31 02:58N 43°35' E 010°18'0 0.0
2018-Jan-31 02:28N 43°35' E 010°18'0 0.0
2018-Jan-31 01:58N 43°35' E 010°18'0 0.0
2018-Jan-31 01:22N 43°35' E 010°18'0 0.0
2018-Jan-31 00:55N 43°35' E 010°18'0 0.0
2018-Jan-30 23:58N 43°35' E 010°18'0 0.0
2018-Jan-30 23:28N 43°35' E 010°18'0 0.0
2018-Jan-30 22:58N 43°35' E 010°18'0 0.0
2018-Jan-30 22:25N 43°35' E 010°18'0 0.0
2018-Jan-30 21:28N 43°35' E 010°18'0 0.0
2018-Jan-30 20:58N 43°35' E 010°18'0 0.0
2018-Jan-30 20:28N 43°35' E 010°18'0 0.0
2018-Jan-30 19:58N 43°35' E 010°18'0 0.0
2018-Jan-30 19:28N 43°35' E 010°18'  

Dump ship's entire track history